ニジネヴァルトフスク の空港の天気 - METARとTAF

Nizhnevartovsk ( USNN / NJC ) - ロシア ニジネヴァルトフスク
飛行場実況気象(Metar)
観測時間12/10 10:00 YEKT (12/10 05:00 UTC)
風向・風速西 3m/s
視程10km以上
天気現象
なし
気温-13℃
湿度78%
気圧1026hPa
METARUSNN 100500Z 26003MPS CAVOK M13/M16 Q1026 R21/410265 NOSIG RMK QFE765
過去の天気等 Google飛行場航空写真 Wunderground天気予報

過去48時間のMETAR

飛行場予報(TAF)
発表時間: 12/10 07:00 YEKT (12/10 02:00 UTC)
予報対象時間: 10日8時 YEKT ~ 11日8時 YEKT
風向・風速南西 3m/s
視程10km以上
全天の4割程度の雲 雲底高度 610m
TAF USNN 100200Z 1003/1103 23003MPS 9999 SCT020